Time;durP1;ratioP1;P1;durP2;ratioP2;P2;SDS_P1;SDS_P2;PMS_P1;PMS_P2;Temp;Humidity;BMP_temperature;BMP_pressure;BME280_temperature;BME280_humidity;BME280_pressure;Samples;Min_cycle;Max_cycle;Signal;HPM_P1;HPM_P2
2022/01/16 00:04:05;;;;;;;36.47;17.00;;;1.10;99.90;;;;;;4976686;28;96031;-76
2022/01/16 00:04:43;;;;;;;33.08;16.58;;;1.00;99.90;;;;;;4976426;28;94416;-75
2022/01/16 00:07:08;;;;;;;36.38;17.05;;;1.00;99.90;;;;;;4976514;28;94664;-75
2022/01/16 00:09:35;;;;;;;36.63;17.27;;;1.00;99.90;;;;;;4976412;28;94443;-76
2022/01/16 00:12:04;;;;;;;35.80;17.35;;;1.00;99.90;;;;;;4974875;28;97087;-76
2022/01/16 00:14:30;;;;;;;35.25;16.17;;;1.00;99.90;;;;;;4974820;28;94691;-76
2022/01/16 00:16:57;;;;;;;36.70;17.38;;;1.00;99.90;;;;;;4976812;28;93823;-76
2022/01/16 00:19:22;;;;;;;35.20;17.30;;;1.00;99.90;;;;;;4976484;28;95667;-76
2022/01/16 00:21:48;;;;;;;35.53;16.77;;;1.00;99.90;;;;;;4976464;28;94414;-76
2022/01/16 00:24:13;;;;;;;38.95;16.60;;;0.90;99.90;;;;;;4974200;28;95509;-75
2022/01/16 00:26:40;;;;;;;34.50;16.63;;;0.90;99.90;;;;;;4976528;28;94534;-75
2022/01/16 00:29:07;;;;;;;37.58;17.92;;;0.90;99.90;;;;;;4976320;28;94360;-75
2022/01/16 05:00:50;;;;;;;51.13;23.73;;;0.80;99.90;;;;;;5814165;22;95684;-78
2022/01/16 05:03:15;;;;;;;48.85;22.98;;;0.90;99.90;;;;;;4995089;28;94471;-78
2022/01/16 05:05:41;;;;;;;51.33;23.40;;;0.90;99.90;;;;;;4997504;28;94460;-78
2022/01/16 05:08:06;;;;;;;52.20;24.25;;;0.90;99.90;;;;;;4994983;28;98965;-78
2022/01/16 05:10:32;;;;;;;48.90;22.77;;;0.90;99.90;;;;;;4995682;28;99033;-78
2022/01/16 05:13:16;;;;;;;48.45;23.95;;;0.90;99.90;;;;;;4996079;28;94526;-78
2022/01/16 05:18:25;;;;;;;47.80;22.17;;;1.00;99.90;;;;;;4995905;28;94390;-78
2022/01/16 05:20:51;;;;;;;45.78;23.23;;;0.90;99.90;;;;;;4994046;28;97074;-77
2022/01/16 05:23:17;;;;;;;47.13;23.10;;;0.90;99.90;;;;;;4993961;28;94437;-77
2022/01/16 05:25:42;;;;;;;42.15;22.35;;;0.90;99.90;;;;;;4994186;28;93817;-77
2022/01/16 05:28:08;;;;;;;46.00;21.77;;;0.90;99.90;;;;;;4995326;28;94474;-77
2022/01/16 05:30:33;;;;;;;41.67;21.08;;;0.90;99.90;;;;;;4995306;28;95728;-77
2022/01/16 05:32:59;;;;;;;42.67;20.70;;;0.90;99.90;;;;;;4993366;28;95537;-77
2022/01/16 05:35:24;;;;;;;44.38;21.90;;;0.90;99.90;;;;;;4995190;28;94614;-77
2022/01/16 05:37:50;;;;;;;39.28;19.95;;;0.80;99.90;;;;;;4995123;28;95336;-77
2022/01/16 05:40:15;;;;;;;37.97;20.10;;;0.90;99.90;;;;;;4995082;28;95055;-77
2022/01/16 05:42:41;;;;;;;38.63;19.70;;;0.80;99.90;;;;;;4995325;28;94455;-77
2022/01/16 05:45:07;;;;;;;38.35;19.90;;;0.70;99.90;;;;;;4994916;28;94641;-77
2022/01/16 05:47:32;;;;;;;36.55;20.00;;;0.70;99.90;;;;;;4993514;28;97887;-77
2022/01/16 05:49:58;;;;;;;40.10;20.88;;;0.70;99.90;;;;;;4995358;28;94855;-77
2022/01/16 05:52:23;;;;;;;38.33;19.10;;;0.70;99.90;;;;;;4994778;28;94488;-77
2022/01/16 05:54:49;;;;;;;38.78;19.35;;;0.70;99.90;;;;;;4994969;28;94453;-77
2022/01/16 05:57:15;;;;;;;38.00;20.52;;;0.70;99.90;;;;;;4994417;28;96085;-77
2022/01/16 05:59:40;;;;;;;42.72;21.27;;;0.70;99.90;;;;;;4993135;28;98758;-77
2022/01/16 06:02:06;;;;;;;41.47;20.17;;;0.70;99.90;;;;;;4994708;28;94557;-77
2022/01/16 06:04:31;;;;;;;39.22;19.67;;;0.60;99.90;;;;;;4993415;28;94602;-77
2022/01/16 06:06:57;;;;;;;38.35;19.98;;;0.60;99.90;;;;;;4993221;28;97204;-77
2022/01/16 06:09:25;;;;;;;40.42;21.05;;;0.50;99.90;;;;;;4994886;28;94424;-77
2022/01/16 06:11:51;;;;;;;40.67;20.48;;;0.50;99.90;;;;;;4994559;28;94461;-77
2022/01/16 06:14:16;;;;;;;41.05;20.77;;;0.50;99.90;;;;;;4995030;28;93665;-77
2022/01/16 06:16:42;;;;;;;40.05;20.83;;;0.50;99.90;;;;;;4992756;28;96726;-77
2022/01/16 06:19:08;;;;;;;41.60;20.80;;;0.50;99.90;;;;;;4992911;28;96971;-77
2022/01/16 06:21:33;;;;;;;43.83;20.85;;;0.40;99.90;;;;;;4992934;28;95446;-78
2022/01/16 06:23:59;;;;;;;43.25;20.67;;;0.40;99.90;;;;;;4994074;28;94408;-77
2022/01/16 06:26:24;;;;;;;44.40;21.73;;;0.40;99.90;;;;;;4994295;28;95226;-77
2022/01/16 06:28:50;;;;;;;43.90;21.55;;;0.40;99.90;;;;;;4994685;28;95975;-77
2022/01/16 06:31:15;;;;;;;45.80;21.83;;;0.40;99.90;;;;;;4994747;28;94467;-77
2022/01/16 06:33:41;;;;;;;43.67;21.52;;;0.50;99.90;;;;;;4993969;28;94621;-77
2022/01/16 06:36:06;;;;;;;42.05;22.05;;;0.40;99.90;;;;;;5007704;28;94585;-77
2022/01/16 06:38:32;;;;;;;42.80;22.67;;;0.50;99.90;;;;;;5018889;28;94107;-77
2022/01/16 06:40:58;;;;;;;49.03;23.05;;;0.50;99.90;;;;;;5001138;28;94444;-77
2022/01/16 06:43:23;;;;;;;49.00;24.50;;;0.50;99.90;;;;;;4994539;28;94497;-77
2022/01/16 06:45:49;;;;;;;47.15;22.40;;;0.50;99.90;;;;;;4992688;28;97744;-77
2022/01/16 06:48:14;;;;;;;45.00;22.35;;;0.50;99.90;;;;;;4994266;28;95831;-77
2022/01/16 06:50:40;;;;;;;48.95;23.58;;;0.50;99.90;;;;;;4992983;28;94492;-77
2022/01/16 06:53:05;;;;;;;48.63;23.52;;;0.50;99.90;;;;;;4994346;28;94593;-77
2022/01/16 06:55:31;;;;;;;49.47;23.40;;;0.50;99.90;;;;;;4994444;28;95242;-77
2022/01/16 06:57:56;;;;;;;53.50;24.23;;;0.50;99.90;;;;;;4999941;28;95290;-77
2022/01/16 07:00:22;;;;;;;53.22;24.83;;;0.50;99.90;;;;;;5000382;28;94353;-77
2022/01/16 07:02:47;;;;;;;54.03;24.80;;;0.50;99.90;;;;;;5001214;28;93754;-77
2022/01/16 07:05:13;;;;;;;61.33;24.08;;;0.50;99.90;;;;;;5000349;28;96169;-77
2022/01/16 07:07:39;;;;;;;55.15;24.10;;;0.50;99.90;;;;;;5000867;28;95227;-79
2022/01/16 07:10:04;;;;;;;54.97;24.70;;;0.50;99.90;;;;;;5003914;28;95709;-79
2022/01/16 07:12:30;;;;;;;54.08;24.08;;;0.50;99.90;;;;;;5003875;28;94467;-78
2022/01/16 07:14:56;;;;;;;52.85;23.38;;;0.50;99.90;;;;;;5005383;28;97227;-79
2022/01/16 07:17:21;;;;;;;52.40;23.80;;;0.50;99.90;;;;;;5006047;28;96500;-79
2022/01/16 07:19:47;;;;;;;52.90;22.63;;;0.50;99.90;;;;;;5003189;28;94780;-78
2022/01/16 07:22:12;;;;;;;49.63;23.60;;;0.50;99.90;;;;;;5005144;28;94664;-79
2022/01/16 07:24:38;;;;;;;54.35;24.13;;;0.50;99.90;;;;;;5006252;28;94845;-79
2022/01/16 07:27:04;;;;;;;52.47;22.00;;;0.50;99.90;;;;;;5003630;28;96530;-79
2022/01/16 07:29:30;;;;;;;48.92;21.95;;;0.50;99.90;;;;;;5000251;28;94463;-78
2022/01/16 07:31:56;;;;;;;49.78;22.48;;;0.50;99.90;;;;;;5005054;28;94540;-79
2022/01/16 07:34:22;;;;;;;46.33;21.23;;;0.50;99.90;;;;;;5003910;28;96126;-79
2022/01/16 07:36:48;;;;;;;46.10;22.15;;;0.50;99.90;;;;;;5000871;28;99005;-78
2022/01/16 07:39:14;;;;;;;50.95;23.33;;;0.60;99.90;;;;;;5005542;28;94476;-79
2022/01/16 07:41:39;;;;;;;44.58;21.90;;;0.60;99.90;;;;;;5002953;28;94549;-78
2022/01/16 07:44:05;;;;;;;48.50;22.80;;;0.60;99.90;;;;;;5003704;28;94358;-78
2022/01/16 07:46:31;;;;;;;45.75;22.98;;;0.60;99.90;;;;;;5003778;28;95741;-78
2022/01/16 07:48:56;;;;;;;48.83;22.45;;;0.60;99.90;;;;;;5007089;28;94436;-79
2022/01/16 07:51:24;;;;;;;45.58;22.05;;;0.60;99.90;;;;;;5004334;28;93760;-78
2022/01/16 07:53:53;;;;;;;50.58;22.80;;;0.70;99.90;;;;;;5003129;28;95561;-79
2022/01/16 07:56:19;;;;;;;48.47;23.35;;;0.70;99.90;;;;;;5004116;28;97681;-78
2022/01/16 07:58:44;;;;;;;49.03;22.67;;;0.70;99.90;;;;;;4999348;28;95514;-78
2022/01/16 08:01:10;;;;;;;47.28;22.20;;;0.70;99.90;;;;;;5004669;28;94534;-78
2022/01/16 08:03:36;;;;;;;45.45;22.90;;;0.80;99.90;;;;;;5003528;28;96842;-78
2022/01/16 08:06:01;;;;;;;46.88;22.65;;;0.80;99.90;;;;;;5002310;28;97394;-78
2022/01/16 08:08:27;;;;;;;45.30;21.80;;;0.80;99.90;;;;;;5001108;28;94439;-78
2022/01/16 08:10:52;;;;;;;47.83;22.50;;;0.90;99.90;;;;;;4981217;28;94600;-79
2022/01/16 08:13:18;;;;;;;49.35;23.95;;;0.90;99.90;;;;;;4992994;28;94897;-78
2022/01/16 08:15:44;;;;;;;45.10;22.08;;;0.80;99.90;;;;;;5003191;28;95084;-79
2022/01/16 08:18:10;;;;;;;46.88;22.75;;;0.80;99.90;;;;;;5003131;28;94649;-79
2022/01/16 08:20:36;;;;;;;45.78;22.98;;;0.90;99.90;;;;;;4997080;28;94560;-79
2022/01/16 08:23:02;;;;;;;45.22;22.75;;;0.90;99.90;;;;;;4996175;28;97752;-78
2022/01/16 08:25:27;;;;;;;48.17;22.70;;;0.90;99.90;;;;;;4987592;28;95778;-78
2022/01/16 08:27:53;;;;;;;43.60;22.05;;;0.90;99.90;;;;;;4988244;28;94452;-77
2022/01/16 08:30:19;;;;;;;46.55;22.80;;;0.90;99.90;;;;;;4986237;28;94747;-78
2022/01/16 08:32:45;;;;;;;51.00;24.33;;;0.90;99.90;;;;;;4983588;28;96417;-77
2022/01/16 08:35:12;;;;;;;47.88;22.15;;;0.80;99.90;;;;;;4987835;28;95396;-78
2022/01/16 08:37:37;;;;;;;51.00;24.20;;;0.70;99.90;;;;;;4987943;28;94651;-78
2022/01/16 08:40:04;;;;;;;52.13;24.55;;;0.80;99.90;;;;;;4984552;28;93765;-78
2022/01/16 08:42:30;;;;;;;51.47;23.13;;;0.70;99.90;;;;;;4976578;28;96118;-77
2022/01/16 08:44:55;;;;;;;52.47;24.63;;;0.70;99.90;;;;;;4978012;28;95336;-78
2022/01/16 08:47:21;;;;;;;53.67;24.35;;;0.70;99.90;;;;;;4976371;28;95385;-78
2022/01/16 08:49:47;;;;;;;51.45;24.17;;;0.80;99.90;;;;;;4975934;28;94431;-78
2022/01/16 08:52:13;;;;;;;53.20;24.67;;;0.70;99.90;;;;;;4979617;28;95142;-79
2022/01/16 08:54:39;;;;;;;52.58;23.38;;;0.70;99.90;;;;;;4978283;28;97707;-79
2022/01/16 08:57:05;;;;;;;57.22;25.00;;;0.80;99.90;;;;;;4977002;28;94440;-78
2022/01/16 08:59:31;;;;;;;53.05;24.45;;;0.70;99.90;;;;;;4980417;28;94360;-78
2022/01/16 09:01:57;;;;;;;53.85;23.83;;;0.80;99.90;;;;;;4981573;28;94562;-79
2022/01/16 09:04:23;;;;;;;55.70;24.25;;;0.80;99.90;;;;;;4982545;28;95025;-82
2022/01/16 09:06:48;;;;;;;54.15;22.95;;;0.90;99.90;;;;;;4978640;28;94808;-76
2022/01/16 09:09:14;;;;;;;54.45;23.00;;;0.90;99.90;;;;;;4994028;28;94413;-74
2022/01/16 09:11:39;;;;;;;55.28;22.95;;;0.80;99.90;;;;;;4995587;28;97192;-72
2022/01/16 09:14:05;;;;;;;54.55;23.55;;;0.80;99.90;;;;;;4986586;28;94585;-73
2022/01/16 09:16:31;;;;;;;60.25;25.17;;;0.70;99.90;;;;;;4988714;28;94544;-75
2022/01/16 09:18:57;;;;;;;60.42;23.52;;;0.70;99.90;;;;;;4990996;28;94831;-72
2022/01/16 09:21:22;;;;;;;59.05;24.70;;;0.70;99.90;;;;;;4989400;28;94340;-74
2022/01/16 09:23:49;;;;;;;56.65;24.45;;;0.80;99.90;;;;;;4995735;28;94867;-75
2022/01/16 09:26:15;;;;;;;58.60;24.80;;;0.80;99.90;;;;;;4993315;28;94577;-74
2022/01/16 09:28:42;;;;;;;58.45;24.75;;;0.80;99.90;;;;;;4979011;28;94034;-75
2022/01/16 09:31:08;;;;;;;53.60;23.13;;;0.80;99.90;;;;;;4975495;28;95063;-76
2022/01/16 09:33:34;;;;;;;53.45;23.52;;;0.90;99.90;;;;;;4974015;28;97688;-74
2022/01/16 09:36:01;;;;;;;52.15;21.90;;;0.90;99.90;;;;;;4974363;28;95595;-75
2022/01/16 09:38:27;;;;;;;56.30;24.20;;;0.90;99.90;;;;;;4981717;28;94326;-73
2022/01/16 09:40:55;;;;;;;55.10;24.67;;;0.80;99.90;;;;;;4995563;28;94428;-74
2022/01/16 09:43:22;;;;;;;59.08;24.52;;;0.80;99.90;;;;;;4995825;28;94850;-75
2022/01/16 09:45:48;;;;;;;56.03;23.55;;;0.80;99.90;;;;;;4996279;28;94794;-74
2022/01/16 09:48:15;;;;;;;54.50;23.50;;;0.80;99.90;;;;;;4994567;28;94543;-75
2022/01/16 09:50:41;;;;;;;54.03;23.63;;;0.80;99.90;;;;;;4995952;28;95368;-75
2022/01/16 09:53:06;;;;;;;55.75;23.00;;;0.80;99.90;;;;;;5008307;28;95738;-76
2022/01/16 09:55:32;;;;;;;59.58;24.02;;;0.80;99.90;;;;;;5017244;28;94057;-76
2022/01/16 09:57:59;;;;;;;53.22;23.17;;;0.80;99.90;;;;;;5000000;28;94867;-74
2022/01/16 10:00:25;;;;;;;56.60;25.05;;;0.90;99.90;;;;;;4997623;28;96219;-75
2022/01/16 10:02:51;;;;;;;60.05;25.23;;;0.90;99.90;;;;;;4995355;28;96529;-74
2022/01/16 10:05:22;;;;;;;59.20;24.38;;;0.90;99.90;;;;;;4996191;28;94413;-75
2022/01/16 10:07:48;;;;;;;58.38;25.83;;;0.90;99.90;;;;;;4995940;28;94420;-78
2022/01/16 10:10:14;;;;;;;58.35;23.50;;;0.90;99.90;;;;;;4993278;28;97439;-75
2022/01/16 10:12:47;;;;;;;57.30;24.27;;;0.90;99.90;;;;;;4993893;28;97321;-75
2022/01/16 10:15:20;;;;;;;58.63;25.02;;;0.90;99.90;;;;;;4995702;28;94357;-73
2022/01/16 10:17:48;;;;;;;63.58;26.88;;;0.90;99.90;;;;;;4994553;28;93818;-76
2022/01/16 10:20:16;;;;;;;59.33;25.33;;;0.90;99.90;;;;;;4994850;28;96130;-78
2022/01/16 10:22:50;;;;;;;60.95;25.40;;;1.00;99.90;;;;;;4994736;28;94449;-77
2022/01/16 10:25:34;;;;;;;58.40;27.35;;;0.90;99.90;;;;;;4995281;28;95414;-76
2022/01/16 10:28:03;;;;;;;62.70;26.70;;;1.00;99.90;;;;;;4991920;28;94616;-77
2022/01/16 10:30:44;;;;;;;67.45;26.38;;;1.00;99.90;;;;;;4982488;28;97032;-78
2022/01/16 10:33:15;;;;;;;62.08;26.20;;;1.00;99.90;;;;;;4981191;28;94939;-76
2022/01/16 10:35:43;;;;;;;65.60;28.10;;;1.10;99.90;;;;;;4976984;28;94676;-77
2022/01/16 10:38:15;;;;;;;60.90;25.25;;;1.10;99.90;;;;;;4974733;28;94512;-77
2022/01/16 10:40:41;;;;;;;60.38;26.67;;;1.10;99.90;;;;;;4973604;28;94474;-78
2022/01/16 10:43:13;;;;;;;61.08;25.77;;;1.20;99.90;;;;;;4973692;28;95830;-77
2022/01/16 10:45:40;;;;;;;60.97;26.90;;;1.20;99.90;;;;;;4975491;28;94756;-76
2022/01/16 10:48:05;;;;;;;49.17;23.00;;;1.30;99.90;;;;;;4975224;28;94523;-79
2022/01/16 10:50:44;;;;;;;58.58;25.33;;;1.40;99.90;;;;;;4974068;28;99163;-81
2022/01/16 10:53:17;;;;;;;53.92;25.02;;;1.50;99.90;;;;;;4976111;28;97921;-81
2022/01/16 10:55:57;;;;;;;56.38;24.92;;;1.50;99.90;;;;;;4978097;28;94394;-80
2022/01/16 10:58:37;;;;;;;52.05;21.38;;;1.50;99.90;;;;;;4977763;28;94597;-79
2022/01/16 11:01:13;;;;;;;57.60;24.58;;;1.60;99.90;;;;;;4978369;28;95628;-79
2022/01/16 11:03:50;;;;;;;54.55;23.35;;;1.70;99.90;;;;;;4977970;28;94340;-75
2022/01/16 11:06:18;;;;;;;52.35;23.83;;;1.80;99.90;;;;;;4978194;28;94367;-78
2022/01/16 11:08:56;;;;;;;60.03;25.75;;;1.80;99.90;;;;;;4974699;28;93739;-75
2022/01/16 11:11:26;;;;;;;57.05;25.20;;;1.70;99.90;;;;;;4974128;28;94537;-76
2022/01/16 11:13:54;;;;;;;56.35;24.08;;;1.70;99.90;;;;;;4978137;28;95359;-75
2022/01/16 11:16:20;;;;;;;63.03;26.42;;;1.60;99.90;;;;;;4976986;28;95440;-78
2022/01/16 11:18:49;;;;;;;61.72;23.80;;;1.50;99.90;;;;;;4977399;28;94593;-79
2022/01/16 11:21:20;;;;;;;63.58;26.73;;;1.50;99.90;;;;;;4976895;28;96476;-78
2022/01/16 11:24:01;;;;;;;60.25;25.40;;;1.50;99.90;;;;;;4972743;28;96880;-76
2022/01/16 11:26:27;;;;;;;61.05;27.17;;;1.60;99.90;;;;;;4974471;28;94837;-78
2022/01/16 11:28:57;;;;;;;68.28;27.70;;;1.50;99.90;;;;;;4975124;28;94530;-77
2022/01/16 11:31:23;;;;;;;64.72;27.40;;;1.40;99.90;;;;;;4975428;28;95550;-82
2022/01/16 11:33:49;;;;;;;61.58;26.98;;;1.40;99.90;;;;;;4975202;28;97048;-79
2022/01/16 11:36:17;;;;;;;69.07;28.33;;;1.40;99.90;;;;;;4976181;28;94402;-78
2022/01/16 11:39:03;;;;;;;63.80;27.13;;;1.40;99.90;;;;;;4974778;28;94503;-82
2022/01/16 11:41:46;;;;;;;65.78;28.02;;;1.40;99.90;;;;;;4974210;28;96211;-76
2022/01/16 11:44:24;;;;;;;65.45;28.33;;;1.30;99.90;;;;;;4977443;28;94839;-77
2022/01/16 11:46:52;;;;;;;58.70;22.85;;;1.40;99.90;;;;;;4978254;28;94431;-77
2022/01/16 11:49:32;;;;;;;65.65;27.27;;;1.30;99.90;;;;;;4977801;28;94466;-76
2022/01/16 11:52:05;;;;;;;67.35;28.90;;;1.40;99.90;;;;;;4976776;28;98317;-76
2022/01/16 11:54:37;;;;;;;65.97;29.50;;;1.50;99.90;;;;;;4978537;28;95291;-79
2022/01/16 11:57:20;;;;;;;68.65;28.58;;;1.50;99.90;;;;;;4977052;28;94970;-78
2022/01/16 11:59:49;;;;;;;65.18;28.88;;;1.60;99.90;;;;;;4979073;28;93648;-77
2022/01/16 12:02:17;;;;;;;60.17;26.73;;;1.70;99.90;;;;;;4976391;28;96966;-81
2022/01/16 12:04:49;;;;;;;65.93;29.40;;;1.70;99.90;;;;;;4977740;28;95233;-77
2022/01/16 12:07:20;;;;;;;64.47;28.70;;;1.70;99.90;;;;;;4977026;28;95336;-77
2022/01/16 12:09:59;;;;;;;72.15;29.98;;;1.70;99.90;;;;;;4977050;28;94490;-76
2022/01/16 12:12:26;;;;;;;67.88;28.67;;;1.70;99.90;;;;;;4976415;28;95325;-77
2022/01/16 12:15:16;;;;;;;65.55;28.30;;;1.70;99.90;;;;;;4977058;28;95273;-76
2022/01/16 12:17:49;;;;;;;69.88;31.20;;;1.70;99.90;;;;;;4975553;28;94518;-77
2022/01/16 12:20:30;;;;;;;75.72;30.45;;;1.70;99.90;;;;;;4976540;28;94475;-77
2022/01/16 12:23:08;;;;;;;79.90;33.88;;;1.80;99.90;;;;;;4974569;28;97386;-77
2022/01/16 12:25:51;;;;;;;71.55;29.20;;;1.90;99.90;;;;;;4977223;28;94805;-77
2022/01/16 12:28:22;;;;;;;80.40;34.10;;;2.00;99.90;;;;;;4977126;28;94423;-77
2022/01/16 12:30:58;;;;;;;71.43;32.83;;;2.00;99.90;;;;;;4976630;28;94825;-77
2022/01/16 12:33:41;;;;;;;70.65;31.55;;;2.10;99.90;;;;;;4975549;28;97594;-77
2022/01/16 12:36:30;;;;;;;66.43;29.92;;;2.10;99.90;;;;;;4976756;28;95990;-76
2022/01/16 12:39:05;;;;;;;66.00;29.20;;;2.10;99.90;;;;;;4975453;28;94526;-77
2022/01/16 12:41:41;;;;;;;68.45;30.38;;;2.10;99.90;;;;;;4976402;28;94515;-77
2022/01/16 12:44:12;;;;;;;67.30;30.33;;;2.10;99.90;;;;;;4977072;28;94618;-77
2022/01/16 12:46:44;;;;;;;63.47;29.85;;;2.10;99.90;;;;;;4976623;28;95623;-77
2022/01/16 12:49:18;;;;;;;66.53;30.55;;;2.30;99.90;;;;;;4976613;28;94439;-77
2022/01/16 12:51:50;;;;;;;63.67;31.30;;;2.20;99.90;;;;;;4976313;28;93774;-77
2022/01/16 12:54:21;;;;;;;68.00;28.67;;;2.20;99.90;;;;;;4973728;28;97271;-77
2022/01/16 12:56:50;;;;;;;59.90;28.13;;;2.20;99.90;;;;;;4974745;28;97731;-77
2022/01/16 12:59:18;;;;;;;60.00;27.88;;;2.30;99.90;;;;;;4973989;28;95405;-77
2022/01/16 13:01:53;;;;;;;64.35;29.08;;;2.20;99.90;;;;;;4975977;28;94524;-77
2022/01/16 13:04:34;;;;;;;58.85;27.88;;;2.20;99.90;;;;;;4976064;28;95044;-77
2022/01/16 13:07:08;;;;;;;63.63;28.10;;;2.20;99.90;;;;;;4977245;28;94421;-77
2022/01/16 13:09:34;;;;;;;61.92;27.42;;;2.30;99.90;;;;;;4984537;28;94480;-76
2022/01/16 13:12:01;;;;;;;61.67;27.88;;;2.30;99.90;;;;;;5000476;28;93831;-76
2022/01/16 13:14:30;;;;;;;57.67;28.52;;;2.30;99.90;;;;;;4988509;28;94437;-77
2022/01/16 13:17:05;;;;;;;53.83;26.33;;;2.30;99.90;;;;;;4975836;28;95345;-77
2022/01/16 13:19:48;;;;;;;58.28;27.42;;;2.40;99.90;;;;;;4976291;28;94422;-77
2022/01/16 13:22:16;;;;;;;59.35;27.38;;;2.40;99.90;;;;;;4976244;28;94477;-78
2022/01/16 13:24:44;;;;;;;56.88;27.42;;;2.40;99.90;;;;;;4975610;28;96221;-76
2022/01/16 13:27:24;;;;;;;64.07;29.10;;;2.40;99.90;;;;;;4975833;28;94684;-76
2022/01/16 13:29:59;;;;;;;55.63;26.63;;;2.50;99.90;;;;;;4975815;28;94458;-76
2022/01/16 13:32:32;;;;;;;53.25;27.20;;;2.60;99.90;;;;;;4975159;28;95041;-76
2022/01/16 13:34:59;;;;;;;55.72;25.80;;;2.60;99.90;;;;;;4975445;28;95481;-76
2022/01/16 13:37:34;;;;;;;55.50;25.50;;;2.60;99.90;;;;;;4975045;28;95851;-76
2022/01/16 13:40:10;;;;;;;53.67;24.48;;;2.70;99.90;;;;;;4975473;28;94526;-76
2022/01/16 13:45:22;;;;;;;51.85;23.73;;;2.80;99.90;;;;;;4973731;28;95046;-76
2022/01/16 13:48:28;;;;;;;53.97;25.45;;;2.80;99.90;;;;;;4975513;28;95229;-76
2022/01/16 13:51:01;;;;;;;48.72;24.17;;;2.80;99.90;;;;;;4952545;28;95396;-76
2022/01/16 13:53:32;;;;;;;48.17;24.05;;;2.80;99.90;;;;;;4953412;28;94554;-77
2022/01/16 13:56:07;;;;;;;45.40;23.05;;;2.80;99.90;;;;;;4937337;28;97236;-76
2022/01/16 13:58:53;;;;;;;52.30;23.85;;;2.70;99.90;;;;;;4959428;28;97396;-76
2022/01/16 14:01:34;;;;;;;44.63;22.13;;;2.70;99.90;;;;;;4975001;28;94891;-77
2022/01/16 14:04:01;;;;;;;47.30;22.98;;;2.70;99.90;;;;;;4973689;28;94417;-77
2022/01/16 14:06:32;;;;;;;48.42;22.13;;;2.80;99.90;;;;;;4974855;28;95063;-77
2022/01/16 14:09:04;;;;;;;48.45;23.23;;;2.80;99.90;;;;;;4976186;28;94927;-78
2022/01/16 14:11:43;;;;;;;45.90;22.90;;;2.70;99.90;;;;;;4975136;28;94859;-77
2022/01/16 14:14:10;;;;;;;47.80;24.10;;;2.80;99.90;;;;;;4975282;28;94526;-77
2022/01/16 14:16:46;;;;;;;43.28;22.75;;;2.80;99.90;;;;;;4975462;28;95457;-77
2022/01/16 14:19:15;;;;;;;40.55;22.20;;;2.80;99.90;;;;;;4975623;28;96018;-77
2022/01/16 14:21:59;;;;;;;41.13;22.08;;;2.80;99.90;;;;;;4975388;28;94521;-77
2022/01/16 14:24:35;;;;;;;46.83;22.48;;;2.90;99.90;;;;;;4975703;28;94422;-77
2022/01/16 14:27:12;;;;;;;46.67;22.95;;;2.90;99.90;;;;;;4975470;28;95266;-77
2022/01/16 14:29:46;;;;;;;45.17;22.15;;;2.90;99.90;;;;;;4975073;28;95256;-77
2022/01/16 14:32:12;;;;;;;46.17;23.20;;;2.90;99.90;;;;;;4973126;28;94549;-77
2022/01/16 14:34:39;;;;;;;46.95;22.48;;;2.90;99.90;;;;;;4976274;28;93644;-78
2022/01/16 14:37:07;;;;;;;41.25;21.48;;;2.80;99.90;;;;;;4975903;28;95642;-77
2022/01/16 14:39:33;;;;;;;43.85;21.23;;;2.90;99.90;;;;;;4973608;28;96722;-77
2022/01/16 14:41:59;;;;;;;46.33;22.67;;;2.90;99.90;;;;;;4976516;28;95556;-78
2022/01/16 14:44:28;;;;;;;43.25;22.50;;;2.90;99.90;;;;;;4977178;28;94862;-78
2022/01/16 14:46:56;;;;;;;42.58;22.00;;;3.00;99.90;;;;;;4973244;28;97815;-76
2022/01/16 14:49:21;;;;;;;44.00;22.45;;;3.10;99.90;;;;;;4975052;28;94368;-77
2022/01/16 14:51:50;;;;;;;43.30;21.63;;;3.20;99.90;;;;;;4975453;28;94581;-77
2022/01/16 14:54:16;;;;;;;38.80;20.27;;;3.30;99.90;;;;;;4976210;28;94571;-76
2022/01/16 14:56:42;;;;;;;37.95;21.08;;;3.30;99.90;;;;;;4976166;28;95211;-77
2022/01/16 14:59:09;;;;;;;39.22;21.23;;;3.40;99.90;;;;;;4976330;28;95399;-77
2022/01/16 15:01:35;;;;;;;36.08;19.45;;;3.30;99.90;;;;;;4976791;28;94354;-77
2022/01/16 15:04:01;;;;;;;40.05;21.27;;;3.20;99.90;;;;;;4977504;28;94553;-78
2022/01/16 15:06:28;;;;;;;39.28;21.88;;;3.10;99.90;;;;;;4982922;28;95434;-78
2022/01/16 15:08:57;;;;;;;39.88;20.63;;;3.00;99.90;;;;;;4982838;28;98459;-77
2022/01/16 15:11:24;;;;;;;38.10;20.73;;;3.00;99.90;;;;;;4984344;28;94300;-78
2022/01/16 15:13:50;;;;;;;41.70;22.23;;;3.00;99.90;;;;;;4983188;28;94332;-78
2022/01/16 15:16:23;;;;;;;38.65;21.23;;;2.90;99.90;;;;;;4981353;28;96668;-78
2022/01/16 15:18:51;;;;;;;38.42;20.95;;;2.90;99.90;;;;;;4984008;28;97316;-78
2022/01/16 15:21:17;;;;;;;39.50;20.65;;;2.90;99.90;;;;;;4984941;28;94438;-78
2022/01/16 15:23:43;;;;;;;40.67;21.13;;;2.90;99.90;;;;;;4985975;28;93886;-78
2022/01/16 15:26:08;;;;;;;39.03;21.75;;;2.90;99.90;;;;;;4983768;28;94457;-78
2022/01/16 15:28:34;;;;;;;41.65;22.17;;;2.90;99.90;;;;;;4982296;28;96518;-78
2022/01/16 15:31:00;;;;;;;39.80;21.15;;;2.90;99.90;;;;;;4981963;28;95577;-78
2022/01/16 15:33:27;;;;;;;40.75;20.55;;;2.80;99.90;;;;;;4982764;28;94607;-77
2022/01/16 15:35:53;;;;;;;43.75;22.33;;;2.80;99.90;;;;;;4983890;28;94416;-78
2022/01/16 15:38:27;;;;;;;43.25;22.65;;;2.80;99.90;;;;;;4982697;28;96305;-78
2022/01/16 15:40:55;;;;;;;40.50;21.65;;;2.80;99.90;;;;;;4983942;28;94563;-77
2022/01/16 15:43:21;;;;;;;41.47;21.67;;;2.80;99.90;;;;;;4983800;28;94392;-77
2022/01/16 15:45:46;;;;;;;44.40;22.65;;;2.80;99.90;;;;;;4982429;28;96848;-78
2022/01/16 15:48:12;;;;;;;41.00;21.38;;;2.70;99.90;;;;;;4986959;28;94234;-77
2022/01/16 15:50:38;;;;;;;39.70;21.90;;;2.70;99.90;;;;;;4980658;28;94595;-76
2022/01/16 15:53:04;;;;;;;40.78;21.65;;;2.70;99.90;;;;;;4978825;28;94506;-76
2022/01/16 15:55:30;;;;;;;45.08;23.35;;;2.80;99.90;;;;;;4978375;28;95532;-76
2022/01/16 15:57:55;;;;;;;42.38;22.35;;;2.80;99.90;;;;;;4977472;28;99034;-76
2022/01/16 16:00:23;;;;;;;42.58;23.75;;;2.70;99.90;;;;;;4978660;28;94602;-76
2022/01/16 16:02:51;;;;;;;44.67;23.08;;;2.60;99.90;;;;;;4977926;28;94458;-77
2022/01/16 16:05:18;;;;;;;42.92;22.27;;;2.70;99.90;;;;;;4977533;28;96911;-77
2022/01/16 16:07:44;;;;;;;44.17;23.42;;;2.60;99.90;;;;;;4979184;28;94432;-78
2022/01/16 16:10:12;;;;;;;45.05;23.52;;;2.60;99.90;;;;;;4979319;28;94486;-77
2022/01/16 16:12:38;;;;;;;45.83;23.73;;;2.60;99.90;;;;;;4979837;28;93602;-77
2022/01/16 16:15:04;;;;;;;44.70;24.08;;;2.50;99.90;;;;;;4978999;28;94360;-77
2022/01/16 16:17:30;;;;;;;48.13;24.17;;;2.50;99.90;;;;;;4978805;28;96060;-77
2022/01/16 16:19:56;;;;;;;42.75;24.13;;;2.50;99.90;;;;;;4978521;28;95388;-77
2022/01/16 16:22:23;;;;;;;45.15;24.13;;;2.50;99.90;;;;;;4977561;28;94564;-77
2022/01/16 16:24:53;;;;;;;43.20;23.17;;;2.60;99.90;;;;;;4979705;28;95113;-78
2022/01/16 16:27:19;;;;;;;45.00;24.00;;;2.60;99.90;;;;;;4982200;28;95393;-77
2022/01/16 16:29:48;;;;;;;42.35;22.15;;;2.60;99.90;;;;;;4998585;28;94398;-76
2022/01/16 16:32:15;;;;;;;45.28;23.10;;;2.60;99.90;;;;;;5001838;28;93789;-77
2022/01/16 16:34:42;;;;;;;42.67;23.02;;;2.60;99.90;;;;;;4979971;28;95484;-77
2022/01/16 16:37:08;;;;;;;44.33;24.08;;;2.70;99.90;;;;;;4976704;28;95181;-77
2022/01/16 16:39:34;;;;;;;42.55;23.42;;;2.70;99.90;;;;;;4978897;28;95074;-76
2022/01/16 16:42:01;;;;;;;42.38;22.95;;;2.60;99.90;;;;;;4976404;28;94357;-76
2022/01/16 16:44:28;;;;;;;42.65;24.15;;;2.60;99.90;;;;;;4974704;28;99130;-76
2022/01/16 16:46:58;;;;;;;38.58;21.27;;;2.70;99.90;;;;;;4975387;28;98575;-77
2022/01/16 16:49:25;;;;;;;41.53;23.35;;;2.70;99.90;;;;;;4977882;28;94487;-76
2022/01/16 16:51:51;;;;;;;42.53;22.73;;;2.70;99.90;;;;;;4980784;28;94625;-77
2022/01/16 16:54:17;;;;;;;38.80;22.75;;;2.60;99.90;;;;;;4980054;28;94815;-77
2022/01/16 16:56:43;;;;;;;43.08;23.58;;;2.60;99.90;;;;;;4978755;28;98194;-76
2022/01/16 16:59:09;;;;;;;43.22;23.88;;;2.60;99.90;;;;;;4979267;28;94516;-77
2022/01/16 17:01:34;;;;;;;41.58;23.33;;;2.60;99.90;;;;;;4980237;28;93748;-77
2022/01/16 17:04:00;;;;;;;42.33;23.60;;;2.60;99.90;;;;;;4980376;28;94546;-77
2022/01/16 17:06:27;;;;;;;40.28;23.08;;;2.50;99.90;;;;;;4978717;28;97770;-76
2022/01/16 17:08:53;;;;;;;39.33;22.55;;;2.60;99.90;;;;;;4980019;28;95589;-77
2022/01/16 17:11:18;;;;;;;41.65;23.25;;;2.60;99.90;;;;;;4978736;28;94508;-77
2022/01/16 17:13:46;;;;;;;43.50;23.75;;;2.60;99.90;;;;;;4980297;28;95208;-79
2022/01/16 17:16:12;;;;;;;41.45;20.60;;;2.60;99.90;;;;;;4980313;28;95165;-77
2022/01/16 17:18:38;;;;;;;38.47;21.25;;;2.60;99.90;;;;;;4983384;28;94443;-78